createdAt,value
2024-04-03T00:01:34.475Z,94875.60
2024-04-03T00:04:01.016Z,94876.40
2024-04-03T00:06:27.548Z,94875.80
2024-04-03T00:08:53.977Z,94873.80
2024-04-03T00:11:20.746Z,94873.60
2024-04-03T00:13:47.263Z,94875.00
2024-04-03T00:16:13.756Z,94869.20
2024-04-03T00:18:40.339Z,94865.80
2024-04-03T00:21:06.825Z,94864.60
2024-04-03T00:23:33.385Z,94863.00
2024-04-03T00:26:01.971Z,94855.20
2024-04-03T00:28:30.626Z,94852.00
2024-04-03T00:31:01.108Z,94850.80
2024-04-03T00:33:27.754Z,94847.40
2024-04-03T00:36:04.311Z,94846.60
2024-04-03T00:38:30.778Z,94844.00
2024-04-03T00:41:02.019Z,94844.00
2024-04-03T00:43:30.256Z,94836.80
2024-04-03T00:46:00.770Z,94836.40
2024-04-03T00:48:30.337Z,94836.40
2024-04-03T00:50:57.497Z,94838.80
2024-04-03T00:53:25.305Z,94831.60
2024-04-03T00:55:51.965Z,94828.60
2024-04-03T00:58:18.515Z,94823.60
2024-04-03T01:00:45.091Z,94823.00
2024-04-03T01:03:11.915Z,94816.80
2024-04-03T01:05:38.492Z,94812.00
2024-04-03T01:08:05.472Z,94809.40
2024-04-03T01:10:32.375Z,94806.80
2024-04-03T01:13:02.547Z,94807.40
2024-04-03T01:15:32.348Z,94798.60
2024-04-03T01:17:58.827Z,94797.60
2024-04-03T01:20:25.409Z,94790.00
2024-04-03T01:22:52.601Z,94791.80
2024-04-03T01:25:19.318Z,94788.00
2024-04-03T01:27:45.813Z,94785.80
2024-04-03T01:30:12.462Z,94782.20
2024-04-03T01:32:45.405Z,94782.80
2024-04-03T01:35:18.975Z,94773.40
2024-04-03T01:37:45.561Z,94769.00
2024-04-03T01:40:11.974Z,94767.20
2024-04-03T01:42:38.778Z,94767.80
2024-04-03T01:45:05.670Z,94763.20
2024-04-03T01:47:32.225Z,94760.40
2024-04-03T01:50:00.656Z,94754.00
2024-04-03T01:52:27.069Z,94752.20
2024-04-03T01:54:53.500Z,94749.40
2024-04-03T01:57:19.956Z,94747.40
2024-04-03T01:59:46.547Z,94743.60
2024-04-03T02:02:13.030Z,94746.60
2024-04-03T02:04:39.557Z,94744.40
2024-04-03T02:07:06.043Z,94742.60
2024-04-03T02:09:36.054Z,94737.80
2024-04-03T02:12:04.479Z,94735.60
2024-04-03T02:14:31.940Z,94726.40
2024-04-03T02:16:59.152Z,94724.40
2024-04-03T02:19:26.165Z,94727.40
2024-04-03T02:21:53.359Z,94724.20
2024-04-03T02:24:20.949Z,94714.80
2024-04-03T02:26:47.926Z,94716.40
2024-04-03T02:29:14.958Z,94711.40
2024-04-03T02:31:41.784Z,94716.20
2024-04-03T02:34:09.088Z,94714.60
2024-04-03T02:36:35.559Z,94714.20
2024-04-03T02:39:02.384Z,94714.60
2024-04-03T02:41:28.882Z,94715.60
2024-04-03T02:43:55.461Z,94710.40
2024-04-03T02:46:21.933Z,94708.00
2024-04-03T02:48:48.438Z,94703.80
2024-04-03T02:51:15.828Z,94706.40
2024-04-03T02:53:42.548Z,94704.60
2024-04-03T02:56:10.185Z,94707.40
2024-04-03T02:58:37.370Z,94700.00
2024-04-03T03:01:07.570Z,94696.80
2024-04-03T03:03:34.497Z,94693.60
2024-04-03T03:06:05.342Z,94695.60
2024-04-03T03:08:33.890Z,94691.40
2024-04-03T03:11:02.986Z,94685.80
2024-04-03T03:13:30.154Z,94687.20
2024-04-03T03:15:59.430Z,94688.40
2024-04-03T03:18:31.568Z,94678.80
2024-04-03T03:20:58.262Z,94675.80
2024-04-03T03:23:24.906Z,94671.20
2024-04-03T03:25:55.615Z,94664.20
2024-04-03T03:28:22.675Z,94660.40
2024-04-03T03:30:53.948Z,94656.40
2024-04-03T03:33:20.526Z,94653.80
2024-04-03T03:35:58.223Z,94646.80
2024-04-03T03:38:25.639Z,94646.20
2024-04-03T03:40:55.378Z,94647.00
2024-04-03T03:43:22.188Z,94639.40
2024-04-03T03:45:51.469Z,94636.00
2024-04-03T03:48:21.993Z,94637.60
2024-04-03T03:51:07.018Z,94626.20
2024-04-03T03:53:33.892Z,94627.20
2024-04-03T03:56:09.809Z,94620.60
2024-04-03T03:58:36.388Z,94620.80
2024-04-03T04:01:06.229Z,94617.00
2024-04-03T04:03:32.915Z,94615.40
2024-04-03T04:06:00.294Z,94616.80
2024-04-03T04:08:27.014Z,94615.40
2024-04-03T04:10:57.543Z,94613.80
2024-04-03T04:13:24.074Z,94614.60
2024-04-03T04:15:51.326Z,94608.60
2024-04-03T04:18:17.964Z,94604.40
2024-04-03T04:20:44.600Z,94607.40
2024-04-03T04:23:11.080Z,94609.60
2024-04-03T04:25:37.589Z,94613.00
2024-04-03T04:28:04.743Z,94612.20
2024-04-03T04:30:31.243Z,94613.00
2024-04-03T04:32:57.718Z,94617.00
2024-04-03T04:35:24.156Z,94612.80
2024-04-03T04:37:50.687Z,94611.20
2024-04-03T04:40:18.966Z,94611.60
2024-04-03T04:42:46.525Z,94611.00
2024-04-03T04:45:13.696Z,94608.80
2024-04-03T04:47:40.190Z,94602.80
2024-04-03T04:50:10.596Z,94604.60
2024-04-03T04:52:37.122Z,94606.20
2024-04-03T04:55:04.169Z,94609.00
2024-04-03T04:57:30.853Z,94611.40
2024-04-03T04:59:57.576Z,94609.80
2024-04-03T05:02:24.018Z,94608.80
2024-04-03T05:04:51.074Z,94609.00
2024-04-03T05:07:17.685Z,94614.60
2024-04-03T05:09:48.988Z,94611.80
2024-04-03T05:12:15.761Z,94610.40
2024-04-03T05:14:42.219Z,94607.20
2024-04-03T05:17:10.207Z,94606.00
2024-04-03T05:19:36.858Z,94604.40
2024-04-03T05:22:06.178Z,94603.00
2024-04-03T05:24:33.088Z,94603.80
2024-04-03T05:26:59.581Z,94602.60
2024-04-03T05:29:26.089Z,94598.40
2024-04-03T05:31:52.600Z,94599.40
2024-04-03T05:34:19.425Z,94597.60
2024-04-03T05:36:46.080Z,94593.60
2024-04-03T05:39:12.517Z,94594.00
2024-04-03T05:41:39.048Z,94591.20
2024-04-03T05:44:06.077Z,94592.60
2024-04-03T05:46:32.626Z,94592.00
2024-04-03T05:48:59.138Z,94594.00
2024-04-03T05:51:25.596Z,94593.40
2024-04-03T05:53:52.034Z,94588.80
2024-04-03T05:56:18.539Z,94587.60
2024-04-03T05:58:45.612Z,94588.80
2024-04-03T06:01:12.173Z,94574.20
2024-04-03T06:03:38.716Z,94575.20
2024-04-03T06:06:05.607Z,94572.80
2024-04-03T06:08:32.115Z,94565.60
2024-04-03T06:10:58.622Z,94574.20
2024-04-03T06:13:25.232Z,94571.80
2024-04-03T06:15:52.059Z,94567.40
2024-04-03T06:18:18.535Z,94569.40
2024-04-03T06:20:45.137Z,94567.60
2024-04-03T06:23:13.078Z,94567.60
2024-04-03T06:25:39.648Z,94569.20
2024-04-03T06:28:06.498Z,94567.60
2024-04-03T06:30:33.577Z,94565.40
2024-04-03T06:33:00.195Z,94563.40
2024-04-03T06:35:26.613Z,94564.60
2024-04-03T06:37:53.122Z,94564.80
2024-04-03T06:40:20.185Z,94566.80
2024-04-03T06:42:47.003Z,94565.40
2024-04-03T06:45:13.560Z,94556.00
2024-04-03T06:47:40.119Z,94558.60
2024-04-03T06:50:06.957Z,94562.00
2024-04-03T06:52:33.607Z,94561.40
2024-04-03T06:55:00.127Z,94555.00
2024-04-03T06:57:26.663Z,94553.00
2024-04-03T06:59:53.190Z,94552.20
2024-04-03T07:02:19.665Z,94550.00
2024-04-03T07:04:46.169Z,94547.20
2024-04-03T07:07:12.683Z,94548.60
2024-04-03T07:09:39.182Z,94544.20
2024-04-03T07:12:06.342Z,94544.40
2024-04-03T07:14:33.381Z,94543.60
2024-04-03T07:16:59.918Z,94542.80
2024-04-03T07:19:26.535Z,94545.80
2024-04-03T07:21:54.597Z,94544.40
2024-04-03T07:24:21.158Z,94546.80
2024-04-03T07:26:48.981Z,94548.60
2024-04-03T07:29:15.530Z,94546.60
2024-04-03T07:31:45.014Z,94541.80
2024-04-03T07:34:12.452Z,94548.40
2024-04-03T07:36:39.531Z,94545.60
2024-04-03T07:39:06.161Z,94550.60
2024-04-03T07:41:34.329Z,94548.40
2024-04-03T07:44:01.026Z,94553.40
2024-04-03T07:46:28.788Z,94554.20
2024-04-03T07:48:55.402Z,94554.60
2024-04-03T07:51:22.107Z,94554.60
2024-04-03T07:53:48.632Z,94555.40
2024-04-03T07:56:15.373Z,94554.00
2024-04-03T07:58:42.629Z,94553.80
2024-04-03T08:01:09.784Z,94552.20
2024-04-03T08:03:38.131Z,94560.20
2024-04-03T08:06:06.974Z,94569.00
2024-04-03T08:08:34.135Z,94571.60
2024-04-03T08:11:02.643Z,94576.80
2024-04-03T08:13:29.696Z,94580.40
2024-04-03T08:16:07.179Z,94584.20
2024-04-03T08:18:34.232Z,94592.40
2024-04-03T08:21:07.715Z,94594.20
2024-04-03T08:23:34.904Z,94596.80
2024-04-03T08:26:10.454Z,94593.60
2024-04-03T08:28:40.230Z,94595.40
2024-04-03T08:31:14.414Z,94591.20
2024-04-03T08:33:43.133Z,94590.00
2024-04-03T08:36:11.726Z,94592.60
2024-04-03T08:38:38.859Z,94591.20
2024-04-03T08:41:06.495Z,94589.60
2024-04-03T08:43:36.990Z,94590.00
2024-04-03T08:46:03.905Z,94589.80
2024-04-03T08:48:30.966Z,94589.00
2024-04-03T08:50:57.927Z,94588.20
2024-04-03T08:53:25.788Z,94598.00
2024-04-03T08:55:54.903Z,94593.00
2024-04-03T08:58:22.666Z,94595.20
2024-04-03T09:00:50.966Z,94600.60
2024-04-03T09:03:20.064Z,94591.00
2024-04-03T09:05:50.656Z,94596.60
2024-04-03T09:08:17.092Z,94596.40
2024-04-03T09:11:02.514Z,94598.60
2024-04-03T09:13:28.974Z,94595.00
2024-04-03T09:15:56.080Z,94598.80
2024-04-03T09:18:22.899Z,94598.60
2024-04-03T09:20:53.847Z,94599.40
2024-04-03T09:23:20.540Z,94601.60
2024-04-03T09:25:47.527Z,94602.00
2024-04-03T09:28:14.662Z,94600.80
2024-04-03T09:30:50.512Z,94598.40
2024-04-03T09:33:20.054Z,94603.60
2024-04-03T09:35:46.648Z,94616.40
2024-04-03T09:38:15.016Z,94615.60
2024-04-03T09:40:42.808Z,94615.80
2024-04-03T09:43:13.364Z,94611.40
2024-04-03T09:45:42.263Z,94607.80
2024-04-03T09:48:10.807Z,94610.80
2024-04-03T09:50:41.868Z,94608.20
2024-04-03T09:53:12.953Z,94605.80
2024-04-03T09:55:39.903Z,94600.00
2024-04-03T09:58:15.080Z,94602.80
2024-04-03T10:00:51.363Z,94598.60
2024-04-03T10:03:28.294Z,94601.40
2024-04-03T10:06:18.327Z,94604.00
2024-04-03T10:08:46.701Z,94603.80
2024-04-03T10:11:16.748Z,94608.20
2024-04-03T10:13:45.612Z,94605.00
2024-04-03T10:16:14.782Z,94599.60
2024-04-03T10:18:46.311Z,94600.60
2024-04-03T10:21:14.228Z,94598.60
2024-04-03T10:23:45.315Z,94605.40
2024-04-03T10:26:13.933Z,94599.60
2024-04-03T10:28:40.916Z,94595.60
2024-04-03T10:31:12.159Z,94597.60
2024-04-03T10:33:38.661Z,94601.40
2024-04-03T10:36:05.876Z,94596.00
2024-04-03T10:38:35.846Z,94589.20
2024-04-03T10:41:03.129Z,94584.40
2024-04-03T10:43:29.748Z,94586.80
2024-04-03T10:45:56.272Z,94585.20
2024-04-03T10:48:24.652Z,94579.40
2024-04-03T10:50:52.076Z,94577.00
2024-04-03T10:53:18.694Z,94581.60
2024-04-03T10:55:48.357Z,94581.20
2024-04-03T10:58:14.889Z,94582.60
2024-04-03T11:00:44.895Z,94583.80
2024-04-03T11:03:12.395Z,94585.80
2024-04-03T11:05:39.751Z,94580.40
2024-04-03T11:08:10.914Z,94578.20
2024-04-03T11:10:38.709Z,94577.60
2024-04-03T11:13:10.370Z,94572.80
2024-04-03T11:15:38.808Z,94568.80
2024-04-03T11:18:05.786Z,94570.00
2024-04-03T11:20:37.512Z,94570.00
2024-04-03T11:23:06.771Z,94570.00
2024-04-03T11:25:33.590Z,94572.00
2024-04-03T11:28:01.892Z,94566.00
2024-04-03T11:30:29.075Z,94572.00
2024-04-03T11:32:57.978Z,94573.60
2024-04-03T11:35:25.458Z,94579.80
2024-04-03T11:37:52.576Z,94576.60
2024-04-03T11:40:19.235Z,94571.60
2024-04-03T11:42:45.858Z,94567.80
2024-04-03T11:45:12.418Z,94564.40
2024-04-03T11:47:38.926Z,94556.60
2024-04-03T11:50:07.239Z,94558.40
2024-04-03T11:52:34.114Z,94558.80
2024-04-03T11:55:00.636Z,94557.00
2024-04-03T11:57:27.672Z,94556.40
2024-04-03T11:59:54.214Z,94565.80
2024-04-03T12:02:20.704Z,94561.20
2024-04-03T12:04:47.667Z,94566.60
2024-04-03T12:07:14.711Z,94567.60
2024-04-03T12:09:43.532Z,94568.20
2024-04-03T12:12:10.718Z,94571.40
2024-04-03T12:14:37.675Z,94574.00
2024-04-03T12:17:05.560Z,94573.60
2024-04-03T12:19:41.163Z,94572.60
2024-04-03T12:22:07.715Z,94571.40
2024-04-03T12:24:34.900Z,94572.40
2024-04-03T12:27:01.525Z,94572.40
2024-04-03T12:29:28.385Z,94573.60
2024-04-03T12:31:55.334Z,94566.20
2024-04-03T12:34:21.762Z,94566.20
2024-04-03T12:37:05.209Z,94572.00
2024-04-03T12:39:34.912Z,94575.60
2024-04-03T12:42:01.416Z,94577.20
2024-04-03T12:44:28.292Z,94580.80
2024-04-03T12:46:54.718Z,94578.20
2024-04-03T12:49:24.915Z,94580.80
2024-04-03T12:51:53.476Z,94575.20
2024-04-03T12:54:20.345Z,94575.80
2024-04-03T12:56:47.117Z,94570.00
2024-04-03T12:59:14.168Z,94568.00
2024-04-03T13:01:40.667Z,94570.20
2024-04-03T13:04:12.386Z,94572.40
2024-04-03T13:06:39.736Z,94577.00
2024-04-03T13:09:06.409Z,94586.80
2024-04-03T13:11:33.490Z,94587.60
2024-04-03T13:13:59.966Z,94590.20
2024-04-03T13:16:26.655Z,94589.80
2024-04-03T13:18:53.166Z,94596.20
2024-04-03T13:21:20.929Z,94595.00
2024-04-03T13:23:47.467Z,94597.40
2024-04-03T13:26:15.126Z,94594.00
2024-04-03T13:28:41.847Z,94597.00
2024-04-03T13:31:08.787Z,94598.40
2024-04-03T13:33:44.036Z,94599.40
2024-04-03T13:36:15.115Z,94602.00
2024-04-03T13:38:42.404Z,94603.40
2024-04-03T13:41:09.989Z,94601.20
2024-04-03T13:43:36.622Z,94604.80
2024-04-03T13:46:03.571Z,94612.00
2024-04-03T13:48:32.734Z,94612.80
2024-04-03T13:51:00.377Z,94610.80
2024-04-03T13:53:27.515Z,94619.60
2024-04-03T13:56:01.749Z,94620.20
2024-04-03T13:58:28.376Z,94618.20
2024-04-03T14:01:04.731Z,94622.60
2024-04-03T14:03:35.743Z,94628.80
2024-04-03T14:06:06.576Z,94629.40
2024-04-03T14:08:36.283Z,94633.60
2024-04-03T14:11:03.001Z,94641.60
2024-04-03T14:13:29.473Z,94649.20
2024-04-03T14:15:55.939Z,94653.40
2024-04-03T14:18:23.964Z,94661.40
2024-04-03T14:20:50.519Z,94657.20
2024-04-03T14:23:17.114Z,94664.60
2024-04-03T14:25:44.060Z,94671.80
2024-04-03T14:28:11.552Z,94672.40
2024-04-03T14:30:42.812Z,94674.60
2024-04-03T14:33:09.434Z,94681.20
2024-04-03T14:35:36.250Z,94686.00
2024-04-03T14:38:06.032Z,94686.00
2024-04-03T14:40:32.912Z,94684.60
2024-04-03T14:43:06.519Z,94694.80
2024-04-03T14:45:33.593Z,94699.00
2024-04-03T14:48:00.134Z,94707.40
2024-04-03T14:50:26.685Z,94713.60
2024-04-03T14:52:54.976Z,94708.80
2024-04-03T14:55:21.508Z,94707.80
2024-04-03T14:57:49.069Z,94710.20
2024-04-03T15:00:15.624Z,94708.60
2024-04-03T15:02:42.086Z,94706.80
2024-04-03T15:05:10.058Z,94711.60
2024-04-03T15:07:36.743Z,94707.60
2024-04-03T15:10:03.632Z,94706.00
2024-04-03T15:12:30.145Z,94707.80
2024-04-03T15:14:56.980Z,94707.20
2024-04-03T15:17:26.358Z,94700.80
2024-04-03T15:19:54.019Z,94696.20
2024-04-03T15:22:22.026Z,94693.80
2024-04-03T15:24:49.544Z,94695.00
2024-04-03T15:27:19.722Z,94692.20
2024-04-03T15:29:46.403Z,94690.60
2024-04-03T15:32:13.630Z,94686.80
2024-04-03T15:34:46.349Z,94683.20
2024-04-03T15:37:14.094Z,94684.00
2024-04-03T15:39:41.277Z,94686.60
2024-04-03T15:42:08.113Z,94684.80
2024-04-03T15:44:35.440Z,94688.40
2024-04-03T15:47:04.838Z,94695.40
2024-04-03T15:49:32.032Z,94696.00
2024-04-03T15:51:58.710Z,94705.00
2024-04-03T15:54:25.885Z,94705.40
2024-04-03T15:56:54.080Z,94707.00
2024-04-03T15:59:23.963Z,94700.40
2024-04-03T16:01:52.086Z,94703.80
2024-04-03T16:04:18.749Z,94702.20
2024-04-03T16:06:46.245Z,94702.00
2024-04-03T16:09:16.699Z,94704.40
2024-04-03T16:11:48.176Z,94707.80
2024-04-03T16:14:16.109Z,94717.40
2024-04-03T16:16:43.309Z,94717.00
2024-04-03T16:19:09.882Z,94717.60
2024-04-03T16:21:36.734Z,94724.80
2024-04-03T16:24:03.569Z,94728.40
2024-04-03T16:26:30.105Z,94728.20
2024-04-03T16:28:56.563Z,94735.20
2024-04-03T16:31:23.744Z,94739.00
2024-04-03T16:33:50.320Z,94732.40
2024-04-03T16:36:16.908Z,94741.80
2024-04-03T16:38:43.487Z,94742.60
2024-04-03T16:41:10.035Z,94741.40
2024-04-03T16:43:43.548Z,94745.20
2024-04-03T16:46:11.281Z,94744.80
2024-04-03T16:48:37.886Z,94744.00
2024-04-03T16:51:04.893Z,94744.20
2024-04-03T16:53:31.416Z,94742.40
2024-04-03T16:55:58.619Z,94737.40
2024-04-03T16:58:25.706Z,94744.40
2024-04-03T17:01:09.236Z,94744.00
2024-04-03T17:03:43.821Z,94748.20
2024-04-03T17:06:12.762Z,94749.80
2024-04-03T17:08:39.521Z,94756.40
2024-04-03T17:11:09.397Z,94762.80
2024-04-03T17:13:35.941Z,94769.60
2024-04-03T17:16:02.731Z,94762.80
2024-04-03T17:18:29.217Z,94774.60
2024-04-03T17:20:55.816Z,94774.20
2024-04-03T17:23:22.301Z,94774.00
2024-04-03T17:25:48.929Z,94779.00
2024-04-03T17:28:15.471Z,94775.80
2024-04-03T17:30:42.046Z,94778.80
2024-04-03T17:33:08.636Z,94787.00
2024-04-03T17:35:35.220Z,94784.80
2024-04-03T17:38:03.576Z,94785.40
2024-04-03T17:40:31.597Z,94789.80
2024-04-03T17:42:58.264Z,94787.20
2024-04-03T17:45:24.931Z,94798.40
2024-04-03T17:47:51.451Z,94800.00
2024-04-03T17:50:18.230Z,94802.80
2024-04-03T17:52:45.123Z,94795.00
2024-04-03T17:55:11.742Z,94801.80
2024-04-03T17:57:38.982Z,94800.00
2024-04-03T18:00:06.577Z,94798.20
2024-04-03T18:02:40.088Z,94797.80
2024-04-03T18:05:07.043Z,94797.60
2024-04-03T18:07:33.825Z,94802.60
2024-04-03T18:10:01.025Z,94800.60
2024-04-03T18:12:27.620Z,94800.80
2024-04-03T18:14:54.469Z,94809.00
2024-04-03T18:17:21.800Z,94813.00
2024-04-03T18:19:49.343Z,94818.00
2024-04-03T18:22:18.917Z,94822.80
2024-04-03T18:24:47.482Z,94821.80
2024-04-03T18:27:14.249Z,94829.60
2024-04-03T18:29:45.909Z,94832.40
2024-04-03T18:32:13.142Z,94835.80
2024-04-03T18:34:43.687Z,94832.20
2024-04-03T18:37:10.107Z,94834.60
2024-04-03T18:39:36.748Z,94841.20
2024-04-03T18:42:04.149Z,94844.40
2024-04-03T18:44:30.697Z,94850.40
2024-04-03T18:46:57.181Z,94851.60
2024-04-03T18:49:24.945Z,94855.00
2024-04-03T18:51:51.941Z,94858.20
2024-04-03T18:54:18.626Z,94856.80
2024-04-03T18:56:45.879Z,94858.00
2024-04-03T18:59:14.163Z,94857.20
2024-04-03T19:01:42.614Z,94861.80
2024-04-03T19:04:11.538Z,94864.80
2024-04-03T19:06:38.131Z,94866.20
2024-04-03T19:09:04.701Z,94866.80
2024-04-03T19:11:32.762Z,94867.60
2024-04-03T19:13:59.487Z,94869.80
2024-04-03T19:16:26.100Z,94872.20
2024-04-03T19:18:52.763Z,94874.20
2024-04-03T19:21:19.206Z,94877.00
2024-04-03T19:23:45.876Z,94878.80
2024-04-03T19:26:12.409Z,94878.40
2024-04-03T19:28:39.368Z,94883.80
2024-04-03T19:31:06.490Z,94882.20
2024-04-03T19:33:36.559Z,94887.40
2024-04-03T19:36:06.170Z,94894.00
2024-04-03T19:38:36.217Z,94889.60
2024-04-03T19:41:06.425Z,94892.20
2024-04-03T19:43:33.238Z,94898.40
2024-04-03T19:46:00.324Z,94902.00
2024-04-03T19:48:27.167Z,94903.80
2024-04-03T19:50:53.981Z,94904.20
2024-04-03T19:53:20.686Z,94904.60
2024-04-03T19:55:47.970Z,94909.60
2024-04-03T19:58:14.511Z,94900.60
2024-04-03T20:00:44.102Z,94894.60
2024-04-03T20:03:11.200Z,94892.20
2024-04-03T20:05:40.591Z,94893.40
2024-04-03T20:08:10.995Z,94902.00
2024-04-03T20:10:47.141Z,94903.80
2024-04-03T20:13:17.099Z,94906.40
2024-04-03T20:15:46.879Z,94905.80
2024-04-03T20:18:13.677Z,94910.80
2024-04-03T20:20:45.725Z,94910.60
2024-04-03T20:23:13.433Z,94915.20
2024-04-03T20:25:46.262Z,94915.20
2024-04-03T20:28:14.604Z,94920.00
2024-04-03T20:30:42.998Z,94920.00
2024-04-03T20:33:11.056Z,94924.80
2024-04-03T20:35:47.131Z,94922.20
2024-04-03T20:38:14.094Z,94925.80
2024-04-03T20:40:42.513Z,94925.00
2024-04-03T20:43:09.058Z,94925.00
2024-04-03T20:45:36.790Z,94915.20
2024-04-03T20:48:04.292Z,94909.80
2024-04-03T20:50:30.774Z,94904.20
2024-04-03T20:52:57.305Z,94900.60
2024-04-03T20:55:26.786Z,94913.80
2024-04-03T20:57:54.705Z,94920.60
2024-04-03T21:00:21.346Z,94915.80
2024-04-03T21:02:47.889Z,94921.60
2024-04-03T21:05:15.100Z,94924.80
2024-04-03T21:07:43.048Z,94930.60
2024-04-03T21:10:11.153Z,94934.20
2024-04-03T21:12:40.754Z,94931.60
2024-04-03T21:15:08.409Z,94924.40
2024-04-03T21:17:36.014Z,94928.80
2024-04-03T21:20:03.455Z,94922.20
2024-04-03T21:22:30.032Z,94922.20
2024-04-03T21:24:56.493Z,94922.00
2024-04-03T21:27:23.100Z,94923.20
2024-04-03T21:29:53.968Z,94928.00
2024-04-03T21:32:20.761Z,94932.00
2024-04-03T21:34:47.497Z,94934.20
2024-04-03T21:37:15.649Z,94932.00
2024-04-03T21:39:46.191Z,94930.40
2024-04-03T21:42:13.244Z,94931.00
2024-04-03T21:44:40.052Z,94929.60
2024-04-03T21:47:06.647Z,94925.00
2024-04-03T21:49:33.362Z,94924.00
2024-04-03T21:51:59.822Z,94934.20
2024-04-03T21:54:26.353Z,94925.60
2024-04-03T21:56:52.809Z,94929.80
2024-04-03T21:59:19.346Z,94934.00
2024-04-03T22:01:45.852Z,94934.20
2024-04-03T22:04:12.322Z,94935.40
2024-04-03T22:06:38.751Z,94937.00
2024-04-03T22:09:05.279Z,94934.40
2024-04-03T22:11:31.819Z,94935.00
2024-04-03T22:13:58.354Z,94936.20
2024-04-03T22:16:24.812Z,94935.40
2024-04-03T22:18:51.339Z,94938.40
2024-04-03T22:21:17.974Z,94940.40
2024-04-03T22:23:44.433Z,94939.40
2024-04-03T22:26:10.904Z,94939.20
2024-04-03T22:28:37.386Z,94938.60
2024-04-03T22:31:04.216Z,94934.60
2024-04-03T22:33:30.733Z,94938.00
2024-04-03T22:35:57.388Z,94938.60
2024-04-03T22:38:24.048Z,94935.60
2024-04-03T22:40:50.548Z,94938.20
2024-04-03T22:43:17.171Z,94933.20
2024-04-03T22:45:43.809Z,94934.40
2024-04-03T22:48:10.308Z,94936.80
2024-04-03T22:50:36.843Z,94934.20
2024-04-03T22:53:04.460Z,94930.60
2024-04-03T22:55:30.922Z,94932.80
2024-04-03T22:57:57.401Z,94928.40
2024-04-03T23:00:27.576Z,94926.40
2024-04-03T23:02:54.347Z,94927.80
2024-04-03T23:05:20.867Z,94928.40
2024-04-03T23:07:47.394Z,94923.80
2024-04-03T23:10:14.032Z,94930.40
2024-04-03T23:12:40.603Z,94934.60
2024-04-03T23:15:07.616Z,94934.60
2024-04-03T23:17:36.383Z,94936.80
2024-04-03T23:20:04.389Z,94937.00
2024-04-03T23:22:30.949Z,94946.60
2024-04-03T23:24:57.662Z,94950.20
2024-04-03T23:27:24.105Z,94944.00
2024-04-03T23:29:50.612Z,94948.20
2024-04-03T23:32:23.340Z,94949.20
2024-04-03T23:34:50.103Z,94951.20
2024-04-03T23:37:17.734Z,94950.00
2024-04-03T23:39:44.291Z,94951.20
2024-04-03T23:42:10.794Z,94950.00
2024-04-03T23:44:37.292Z,94952.40
2024-04-03T23:47:04.442Z,94948.40
2024-04-03T23:49:30.982Z,94941.60
2024-04-03T23:51:57.513Z,94944.40
2024-04-03T23:54:24.075Z,94935.20
2024-04-03T23:56:50.547Z,94935.80
2024-04-03T23:59:17.046Z,94930.40
